createdAt,value
2019-05-15T00:01:41.025Z,8.80
2019-05-15T00:04:09.342Z,8.70
2019-05-15T00:06:39.988Z,8.70
2019-05-15T00:09:10.390Z,8.70
2019-05-15T00:11:40.831Z,8.70
2019-05-15T00:14:11.375Z,8.70
2019-05-15T00:16:42.082Z,8.60
2019-05-15T00:19:12.494Z,8.60
2019-05-15T00:21:42.930Z,8.60
2019-05-15T00:24:13.433Z,8.60
2019-05-15T00:26:43.839Z,8.60
2019-05-15T00:29:17.404Z,8.60
2019-05-15T00:31:48.534Z,8.50
2019-05-15T00:34:19.050Z,8.50
2019-05-15T00:36:49.485Z,8.50
2019-05-15T00:39:19.934Z,8.50
2019-05-15T00:41:54.583Z,8.40
2019-05-15T00:44:22.422Z,8.40
2019-05-15T00:46:52.782Z,8.40
2019-05-15T00:49:23.166Z,8.40
2019-05-15T00:51:53.592Z,8.40
2019-05-15T00:54:24.227Z,8.40
2019-05-15T00:56:54.592Z,8.30
2019-05-15T00:59:29.335Z,8.30
2019-05-15T01:01:59.300Z,8.30
2019-05-15T01:04:29.102Z,8.20
2019-05-15T01:06:59.465Z,8.20
2019-05-15T01:09:29.845Z,8.20
2019-05-15T01:12:00.205Z,8.20
2019-05-15T01:14:30.591Z,8.20
2019-05-15T01:17:01.024Z,8.20
2019-05-15T01:19:31.398Z,8.20
2019-05-15T01:22:01.798Z,8.10
2019-05-15T01:24:32.153Z,8.10
2019-05-15T01:27:02.545Z,8.10
2019-05-15T01:29:41.892Z,8.10
2019-05-15T01:32:04.991Z,8.10
2019-05-15T01:34:35.361Z,8.00
2019-05-15T01:37:05.721Z,8.00
2019-05-15T01:39:38.360Z,8.00
2019-05-15T01:42:08.414Z,8.00
2019-05-15T01:44:39.113Z,7.90
2019-05-15T01:47:09.454Z,7.90
2019-05-15T01:49:39.821Z,7.90
2019-05-15T01:52:10.184Z,7.80
2019-05-15T01:54:40.552Z,7.80
2019-05-15T01:57:10.911Z,7.80
2019-05-15T01:59:53.974Z,7.70
2019-05-15T02:02:13.374Z,7.70
2019-05-15T02:04:43.728Z,7.70
2019-05-15T02:07:14.094Z,7.70
2019-05-15T02:09:44.473Z,7.70
2019-05-15T02:12:15.673Z,7.70
2019-05-15T02:14:48.447Z,7.60
2019-05-15T02:17:18.931Z,7.60
2019-05-15T02:19:50.440Z,7.60
2019-05-15T02:22:20.817Z,7.60
2019-05-15T02:24:51.203Z,7.50
2019-05-15T02:27:21.570Z,7.50
2019-05-15T02:29:51.972Z,7.50
2019-05-15T02:32:22.334Z,7.50
2019-05-15T02:35:05.791Z,7.40
2019-05-15T02:37:36.148Z,7.40
2019-05-15T02:40:09.664Z,7.40
2019-05-15T02:42:39.983Z,7.40
2019-05-15T02:45:11.015Z,7.30
2019-05-15T02:47:41.374Z,7.30
2019-05-15T02:50:12.238Z,7.20
2019-05-15T02:52:45.456Z,7.20
2019-05-15T02:55:34.023Z,7.20
2019-05-15T02:58:04.401Z,7.20
2019-05-15T03:00:44.172Z,7.20
2019-05-15T03:03:09.485Z,7.10
2019-05-15T03:05:40.806Z,7.10
2019-05-15T03:08:11.233Z,7.00
2019-05-15T03:10:41.634Z,7.00
2019-05-15T03:13:12.103Z,6.90
2019-05-15T03:15:42.469Z,6.90
2019-05-15T03:18:12.825Z,6.90
2019-05-15T03:21:02.542Z,6.80
2019-05-15T03:23:33.012Z,6.80
2019-05-15T03:26:04.451Z,6.80
2019-05-15T03:28:35.267Z,6.80
2019-05-15T03:31:25.737Z,6.70
2019-05-15T03:33:44.862Z,6.70
2019-05-15T03:36:13.494Z,6.70
2019-05-15T03:38:42.134Z,6.70
2019-05-15T03:41:12.645Z,6.60
2019-05-15T03:43:43.085Z,6.60
2019-05-15T03:46:13.733Z,6.60
2019-05-15T03:49:03.511Z,6.50
2019-05-15T03:51:33.869Z,6.50
2019-05-15T03:54:04.305Z,6.50
2019-05-15T03:56:34.757Z,6.40
2019-05-15T03:59:05.120Z,6.50
2019-05-15T04:01:42.349Z,6.50
2019-05-15T04:04:09.617Z,6.40
2019-05-15T04:06:40.148Z,6.40
2019-05-15T04:09:10.523Z,6.40
2019-05-15T04:11:40.892Z,6.40
2019-05-15T04:14:11.274Z,6.40
2019-05-15T04:16:41.708Z,6.40
2019-05-15T04:19:12.101Z,6.40
2019-05-15T04:21:45.228Z,6.40
2019-05-15T04:24:18.828Z,6.40
2019-05-15T04:26:49.028Z,6.50
2019-05-15T04:29:31.432Z,6.60
2019-05-15T04:32:05.787Z,6.70
2019-05-15T04:34:33.866Z,6.80
2019-05-15T04:37:04.259Z,7.00
2019-05-15T04:39:34.726Z,7.10
2019-05-15T04:42:05.076Z,7.20
2019-05-15T04:44:35.456Z,7.40
2019-05-15T04:47:05.822Z,7.40
2019-05-15T04:49:39.183Z,7.40
2019-05-15T04:52:10.026Z,7.50
2019-05-15T04:54:40.889Z,7.50
2019-05-15T04:57:11.347Z,7.60
2019-05-15T04:59:41.784Z,7.60
2019-05-15T05:02:17.517Z,7.70
2019-05-15T05:04:44.239Z,7.70
2019-05-15T05:07:14.963Z,7.80
2019-05-15T05:09:45.319Z,7.80
2019-05-15T05:12:15.693Z,7.90
2019-05-15T05:14:48.283Z,8.00
2019-05-15T05:17:19.521Z,8.00
2019-05-15T05:19:51.505Z,8.10
2019-05-15T05:22:21.986Z,8.50
2019-05-15T05:24:52.372Z,9.70
2019-05-15T05:27:22.736Z,10.80
2019-05-15T05:29:53.123Z,11.70
2019-05-15T05:32:34.358Z,12.50
2019-05-15T05:34:55.940Z,13.20
2019-05-15T05:37:28.024Z,13.80
2019-05-15T05:39:58.490Z,14.20
2019-05-15T05:42:29.167Z,14.70
2019-05-15T05:44:59.614Z,15.10
2019-05-15T05:47:29.989Z,15.50
2019-05-15T05:50:00.354Z,15.80
2019-05-15T05:52:30.752Z,15.90
2019-05-15T05:55:01.118Z,16.20
2019-05-15T05:57:31.508Z,16.70
2019-05-15T06:00:01.872Z,17.00
2019-05-15T06:02:43.867Z,17.30
2019-05-15T06:05:05.262Z,17.60
2019-05-15T06:07:38.758Z,17.90
2019-05-15T06:10:09.232Z,18.20
2019-05-15T06:12:39.600Z,18.40
2019-05-15T06:15:10.315Z,19.00
2019-05-15T06:17:40.699Z,19.40
2019-05-15T06:20:11.300Z,19.40
2019-05-15T06:22:41.684Z,19.40
2019-05-15T06:25:12.141Z,19.70
2019-05-15T06:27:42.511Z,19.90
2019-05-15T06:30:20.059Z,20.30
2019-05-15T06:33:01.846Z,20.70
2019-05-15T06:35:20.344Z,20.80
2019-05-15T06:37:50.726Z,20.50
2019-05-15T06:40:21.638Z,20.60
2019-05-15T06:42:53.157Z,21.00
2019-05-15T06:45:25.228Z,21.10
2019-05-15T06:47:57.807Z,21.80
2019-05-15T06:50:38.234Z,21.60
2019-05-15T06:53:10.863Z,22.00
2019-05-15T06:55:41.438Z,22.40
2019-05-15T06:58:11.774Z,22.40
2019-05-15T07:00:42.231Z,22.10
2019-05-15T07:03:21.708Z,21.90
2019-05-15T07:05:44.714Z,22.00
2019-05-15T07:08:15.086Z,22.30
2019-05-15T07:10:45.522Z,22.70
2019-05-15T07:13:18.025Z,23.20
2019-05-15T07:15:49.590Z,23.70
2019-05-15T07:18:20.351Z,23.90
2019-05-15T07:20:50.731Z,24.00
2019-05-15T07:23:21.104Z,23.80
2019-05-15T07:25:51.479Z,23.80
2019-05-15T07:28:21.856Z,24.10
2019-05-15T07:30:52.254Z,24.10
2019-05-15T07:33:35.719Z,24.10
2019-05-15T07:35:54.714Z,24.10
2019-05-15T07:38:25.083Z,23.90
2019-05-15T07:41:00.118Z,23.70
2019-05-15T07:43:28.097Z,23.90
2019-05-15T07:45:59.166Z,23.80
2019-05-15T07:48:29.584Z,23.60
2019-05-15T07:51:00.179Z,23.50
2019-05-15T07:53:31.349Z,23.50
2019-05-15T07:56:01.901Z,23.40
2019-05-15T07:58:32.370Z,23.40
2019-05-15T08:01:05.350Z,23.40
2019-05-15T08:03:35.562Z,23.50
2019-05-15T08:06:08.589Z,23.80
2019-05-15T08:08:39.277Z,24.20
2019-05-15T08:11:20.432Z,24.40
2019-05-15T08:13:42.151Z,24.20
2019-05-15T08:16:12.554Z,23.90
2019-05-15T08:18:42.913Z,23.80
2019-05-15T08:21:13.302Z,24.10
2019-05-15T08:23:43.693Z,24.00
2019-05-15T08:26:14.059Z,23.70
2019-05-15T08:28:44.450Z,23.70
2019-05-15T08:31:14.857Z,23.80
2019-05-15T08:33:45.240Z,24.20
2019-05-15T08:36:15.610Z,24.10
2019-05-15T08:38:48.420Z,23.90
2019-05-15T08:41:18.717Z,23.70
2019-05-15T08:43:49.108Z,23.30
2019-05-15T08:46:19.552Z,23.40
2019-05-15T08:48:49.912Z,23.40
2019-05-15T08:51:20.291Z,23.40
2019-05-15T08:53:50.664Z,23.70
2019-05-15T08:56:21.054Z,23.60
2019-05-15T08:58:51.408Z,23.70
2019-05-15T09:01:28.884Z,23.90
2019-05-15T09:04:00.985Z,23.90
2019-05-15T09:06:31.745Z,23.90
2019-05-15T09:09:05.018Z,24.20
2019-05-15T09:11:40.999Z,24.10
2019-05-15T09:14:24.113Z,24.30
2019-05-15T09:16:58.275Z,24.00
2019-05-15T09:19:31.907Z,24.00
2019-05-15T09:22:05.085Z,23.80
2019-05-15T09:24:37.823Z,23.80
2019-05-15T09:27:10.127Z,23.50
2019-05-15T09:29:40.969Z,23.50
2019-05-15T09:32:14.148Z,23.80
2019-05-15T09:34:50.771Z,23.90
2019-05-15T09:37:18.026Z,24.00
2019-05-15T09:39:49.072Z,24.20
2019-05-15T09:42:19.953Z,24.10
2019-05-15T09:44:50.387Z,24.10
2019-05-15T09:47:20.786Z,24.00
2019-05-15T09:49:51.140Z,23.60
2019-05-15T09:52:23.068Z,23.00
2019-05-15T09:54:59.136Z,23.10
2019-05-15T09:57:30.259Z,23.50
2019-05-15T10:00:00.681Z,23.80
2019-05-15T10:02:32.605Z,23.90
2019-05-15T10:05:06.500Z,23.60
2019-05-15T10:07:35.254Z,23.30
2019-05-15T10:10:09.039Z,23.10
2019-05-15T10:12:39.441Z,22.90
2019-05-15T10:15:11.865Z,22.90
2019-05-15T10:17:42.538Z,23.20
2019-05-15T10:20:13.915Z,23.50
2019-05-15T10:22:44.313Z,23.80
2019-05-15T10:25:14.991Z,23.50
2019-05-15T10:27:45.385Z,23.70
2019-05-15T10:30:18.689Z,24.00
2019-05-15T10:32:48.885Z,24.10
2019-05-15T10:35:28.144Z,24.20
2019-05-15T10:37:51.792Z,24.30
2019-05-15T10:40:22.297Z,24.40
2019-05-15T10:42:52.692Z,24.00
2019-05-15T10:45:23.362Z,24.20
2019-05-15T10:47:53.763Z,24.20
2019-05-15T10:50:24.281Z,24.40
2019-05-15T10:52:54.667Z,24.20
2019-05-15T10:55:25.034Z,24.50
2019-05-15T10:57:55.434Z,24.40
2019-05-15T11:00:28.618Z,24.00
2019-05-15T11:02:58.831Z,23.80
2019-05-15T11:05:41.162Z,23.80
2019-05-15T11:08:01.355Z,23.80
2019-05-15T11:10:31.721Z,24.00
2019-05-15T11:13:02.109Z,23.80
2019-05-15T11:15:32.481Z,23.80
2019-05-15T11:18:02.872Z,23.80
2019-05-15T11:20:33.239Z,23.80
2019-05-15T11:23:03.921Z,23.30
2019-05-15T11:25:34.282Z,23.10
2019-05-15T11:28:05.103Z,22.70
2019-05-15T11:30:35.503Z,22.40
2019-05-15T11:33:05.943Z,22.00
2019-05-15T11:35:39.084Z,21.90
2019-05-15T11:38:10.112Z,22.30
2019-05-15T11:40:40.488Z,22.00
2019-05-15T11:43:10.881Z,21.90
2019-05-15T11:45:41.314Z,21.90
2019-05-15T11:48:13.735Z,21.80
2019-05-15T11:50:56.019Z,22.00
2019-05-15T11:53:28.398Z,21.80
2019-05-15T11:55:59.831Z,21.50
2019-05-15T11:58:30.432Z,21.20
2019-05-15T12:01:00.815Z,21.20
2019-05-15T12:03:31.201Z,21.20
2019-05-15T12:06:14.908Z,21.10
2019-05-15T12:08:33.766Z,20.80
2019-05-15T12:11:04.151Z,20.50
2019-05-15T12:13:34.519Z,20.20
2019-05-15T12:16:04.989Z,20.20
2019-05-15T12:18:35.356Z,19.90
2019-05-15T12:21:05.788Z,19.70
2019-05-15T12:23:38.574Z,19.80
2019-05-15T12:26:09.132Z,19.80
2019-05-15T12:31:11.872Z,19.90
2019-05-15T12:33:42.261Z,20.00
2019-05-15T12:36:12.645Z,20.00
2019-05-15T12:38:43.030Z,20.10
2019-05-15T12:39:23.671Z,19.80
2019-05-15T13:01:30.375Z,19.50
2019-05-15T13:04:00.793Z,19.50
2019-05-15T13:06:31.197Z,19.40
2019-05-15T13:09:01.593Z,19.30
2019-05-15T13:11:32.491Z,19.20
2019-05-15T13:14:03.154Z,19.30
2019-05-15T13:16:33.653Z,19.30
2019-05-15T13:19:04.139Z,19.20
2019-05-15T13:21:34.509Z,19.10
2019-05-15T13:24:07.988Z,18.90
2019-05-15T13:26:38.550Z,19.00
2019-05-15T13:29:09.355Z,18.80
2019-05-15T13:31:39.727Z,18.80
2019-05-15T13:34:10.133Z,18.70
2019-05-15T13:36:40.502Z,18.80
2019-05-15T13:39:11.050Z,18.90
2019-05-15T13:41:41.483Z,19.00
2019-05-15T13:44:11.937Z,19.10
2019-05-15T13:46:42.347Z,19.00
2019-05-15T13:49:12.735Z,18.90
2019-05-15T13:51:43.129Z,18.70
2019-05-15T13:54:13.511Z,18.70
2019-05-15T13:56:43.879Z,18.60
2019-05-15T13:59:14.276Z,18.50
2019-05-15T14:01:44.646Z,18.50
2019-05-15T14:04:15.038Z,18.60
2019-05-15T14:06:45.401Z,18.60
2019-05-15T14:09:15.790Z,18.70
2019-05-15T14:11:49.396Z,18.70
2019-05-15T14:14:18.366Z,18.60
2019-05-15T14:16:49.236Z,18.70
2019-05-15T14:19:19.831Z,18.80
2019-05-15T14:21:50.210Z,18.80
2019-05-15T14:24:21.829Z,18.70
2019-05-15T14:26:52.197Z,18.60
2019-05-15T14:29:22.621Z,18.50
2019-05-15T14:31:52.993Z,18.60
2019-05-15T14:34:23.377Z,18.50
2019-05-15T14:36:54.079Z,18.40
2019-05-15T14:39:24.564Z,18.50
2019-05-15T14:41:54.943Z,18.60
2019-05-15T14:44:27.287Z,18.80
2019-05-15T14:46:58.240Z,18.80
2019-05-15T14:49:34.617Z,18.70
2019-05-15T14:52:08.239Z,18.70
2019-05-15T14:54:33.367Z,18.80
2019-05-15T14:57:03.723Z,18.70
2019-05-15T14:59:34.431Z,18.70
2019-05-15T15:02:04.878Z,18.60
2019-05-15T15:04:35.277Z,18.60
2019-05-15T15:07:05.639Z,18.60
2019-05-15T15:09:36.036Z,18.70
2019-05-15T15:12:08.176Z,18.80
2019-05-15T15:14:38.736Z,18.80
2019-05-15T15:17:09.104Z,18.70
2019-05-15T15:19:39.499Z,18.80
2019-05-15T15:22:09.866Z,18.90
2019-05-15T15:24:40.252Z,18.80
2019-05-15T15:27:10.618Z,18.80
2019-05-15T15:29:41.159Z,18.80
2019-05-15T15:32:11.587Z,18.70
2019-05-15T15:34:41.949Z,18.80
2019-05-15T15:37:12.345Z,18.80
2019-05-15T15:39:42.765Z,18.80
2019-05-15T15:42:13.313Z,18.80
2019-05-15T15:44:43.708Z,18.70
2019-05-15T15:47:14.083Z,18.60
2019-05-15T15:49:44.481Z,18.40
2019-05-15T15:52:14.854Z,18.40
2019-05-15T15:54:45.275Z,18.40
2019-05-15T15:57:15.711Z,18.40
2019-05-15T15:59:46.111Z,18.40
2019-05-15T16:02:18.566Z,18.40
2019-05-15T16:04:48.559Z,18.40
2019-05-15T16:07:18.998Z,18.40
2019-05-15T16:09:49.462Z,18.40
2019-05-15T16:12:19.843Z,18.40
2019-05-15T16:14:50.389Z,18.30
2019-05-15T16:17:20.766Z,18.20
2019-05-15T16:19:51.155Z,18.20
2019-05-15T16:22:21.535Z,18.20
2019-05-15T16:24:51.996Z,18.10
2019-05-15T16:27:22.374Z,18.10
2019-05-15T16:29:52.783Z,18.10
2019-05-15T16:32:23.323Z,18.10
2019-05-15T16:34:53.721Z,18.20
2019-05-15T16:37:24.157Z,18.20
2019-05-15T16:39:57.208Z,18.20
2019-05-15T16:42:28.572Z,18.20
2019-05-15T16:44:58.715Z,18.00
2019-05-15T16:47:29.999Z,17.90
2019-05-15T16:50:00.398Z,17.90
2019-05-15T16:52:31.405Z,17.90
2019-05-15T16:55:01.973Z,18.00
2019-05-15T16:57:32.331Z,17.90
2019-05-15T17:00:02.727Z,17.90
2019-05-15T17:02:33.092Z,17.90
2019-05-15T17:05:04.197Z,17.90
2019-05-15T17:07:34.575Z,17.80
2019-05-15T17:10:08.123Z,17.80
2019-05-15T17:12:38.952Z,17.80
2019-05-15T17:15:11.092Z,17.70
2019-05-15T17:17:41.463Z,17.60
2019-05-15T17:20:12.640Z,17.50
2019-05-15T17:22:43.011Z,17.50
2019-05-15T17:25:13.840Z,17.40
2019-05-15T17:27:44.218Z,17.30
2019-05-15T17:30:18.207Z,17.30
2019-05-15T17:32:49.350Z,17.20
2019-05-15T17:35:20.025Z,17.10
2019-05-15T17:37:50.395Z,17.00
2019-05-15T17:40:21.503Z,16.90
2019-05-15T17:42:51.879Z,16.80
2019-05-15T17:45:22.344Z,16.70
2019-05-15T17:47:52.883Z,16.70
2019-05-15T17:50:25.001Z,16.60
2019-05-15T17:52:55.361Z,16.50
2019-05-15T17:55:27.853Z,16.50
2019-05-15T17:58:00.968Z,16.50
2019-05-15T18:00:30.391Z,16.40
2019-05-15T18:03:00.762Z,16.40
2019-05-15T18:05:31.237Z,16.30
2019-05-15T18:08:01.590Z,16.30
2019-05-15T18:10:31.992Z,16.30
2019-05-15T18:13:02.361Z,16.30
2019-05-15T18:15:33.129Z,16.30
2019-05-15T18:18:03.522Z,16.30
2019-05-15T18:20:33.908Z,16.30
2019-05-15T18:23:04.284Z,16.20
2019-05-15T18:25:34.740Z,16.20
2019-05-15T18:28:05.246Z,16.20
2019-05-15T18:30:38.881Z,16.20
2019-05-15T18:33:08.926Z,16.20
2019-05-15T18:35:39.337Z,16.10
2019-05-15T18:38:09.712Z,16.10
2019-05-15T18:40:40.116Z,16.10
2019-05-15T18:43:10.474Z,16.00
2019-05-15T18:45:40.940Z,15.90
2019-05-15T18:48:11.373Z,15.90
2019-05-15T18:50:41.936Z,15.80
2019-05-15T18:53:12.308Z,15.70
2019-05-15T18:55:42.698Z,15.60
2019-05-15T18:58:13.069Z,15.50
2019-05-15T19:00:43.715Z,15.40
2019-05-15T19:03:19.375Z,15.30
2019-05-15T19:05:47.728Z,15.20
2019-05-15T19:08:18.777Z,15.10
2019-05-15T19:10:49.315Z,15.00
2019-05-15T19:13:21.132Z,15.00
2019-05-15T19:15:51.518Z,14.90
2019-05-15T19:18:21.885Z,14.80
2019-05-15T19:20:52.284Z,14.80
2019-05-15T19:23:22.650Z,14.60
2019-05-15T19:25:53.168Z,14.50
2019-05-15T19:28:23.818Z,14.50
2019-05-15T19:30:54.280Z,14.40
2019-05-15T19:33:34.477Z,14.30
2019-05-15T19:35:56.738Z,14.30
2019-05-15T19:38:27.948Z,14.10
2019-05-15T19:41:02.996Z,14.00
2019-05-15T19:43:30.811Z,14.00
2019-05-15T19:46:01.454Z,13.80
2019-05-15T19:48:31.958Z,13.80
2019-05-15T19:51:02.469Z,13.70
2019-05-15T19:53:32.842Z,13.70
2019-05-15T19:56:03.228Z,13.70
2019-05-15T19:58:33.675Z,13.60
2019-05-15T20:01:04.074Z,13.70
2019-05-15T20:03:47.264Z,13.70
2019-05-15T20:06:08.370Z,13.70
2019-05-15T20:08:38.987Z,13.80
2019-05-15T20:11:10.517Z,13.80
2019-05-15T20:13:41.023Z,13.80
2019-05-15T20:16:11.406Z,13.80
2019-05-15T20:18:41.779Z,13.80
2019-05-15T20:21:12.160Z,13.80
2019-05-15T20:23:42.666Z,13.80
2019-05-15T20:26:13.064Z,13.80
2019-05-15T20:28:43.510Z,13.80
2019-05-15T20:31:13.900Z,13.70
2019-05-15T20:33:44.274Z,13.70
2019-05-15T20:36:17.879Z,13.70
2019-05-15T20:38:48.445Z,13.70
2019-05-15T20:41:19.084Z,13.60
2019-05-15T20:43:49.450Z,13.60
2019-05-15T20:46:19.857Z,13.60
2019-05-15T20:48:50.299Z,13.50
2019-05-15T20:51:20.694Z,13.50
2019-05-15T20:53:51.063Z,13.40
2019-05-15T20:56:21.441Z,13.40
2019-05-15T20:58:51.815Z,13.30
2019-05-15T21:01:22.214Z,13.30
2019-05-15T21:03:52.580Z,13.20
2019-05-15T21:06:22.975Z,13.10
2019-05-15T21:08:53.345Z,13.10
2019-05-15T21:11:23.727Z,13.00
2019-05-15T21:13:54.094Z,12.90
2019-05-15T21:16:24.487Z,12.90
2019-05-15T21:18:57.742Z,12.80
2019-05-15T21:21:28.307Z,12.80
2019-05-15T21:24:00.929Z,12.70
2019-05-15T21:26:30.953Z,12.70
2019-05-15T21:29:01.318Z,12.60
2019-05-15T21:31:32.147Z,12.60
2019-05-15T21:34:03.561Z,12.60
2019-05-15T21:36:35.014Z,12.50
2019-05-15T21:39:06.592Z,12.40
2019-05-15T21:41:38.772Z,12.40
2019-05-15T21:44:09.207Z,12.40
2019-05-15T21:46:39.605Z,12.30
2019-05-15T21:49:09.971Z,12.30
2019-05-15T21:51:40.353Z,12.20
2019-05-15T21:54:10.732Z,12.10
2019-05-15T21:56:41.389Z,12.10
2019-05-15T21:59:11.764Z,12.10
2019-05-15T22:01:42.565Z,12.00
2019-05-15T22:04:13.013Z,12.00
2019-05-15T22:06:43.419Z,12.00
2019-05-15T22:09:18.262Z,11.90
2019-05-15T22:11:49.749Z,11.90
2019-05-15T22:14:20.338Z,11.90
2019-05-15T22:16:50.720Z,11.80
2019-05-15T22:19:21.107Z,11.70
2019-05-15T22:21:51.489Z,11.70
2019-05-15T22:24:21.859Z,11.70
2019-05-15T22:26:52.639Z,11.60
2019-05-15T22:29:23.007Z,11.50
2019-05-15T22:31:53.442Z,11.50
2019-05-15T22:34:23.806Z,11.40
2019-05-15T22:36:54.196Z,11.40
2019-05-15T22:39:24.565Z,11.40
2019-05-15T22:41:55.232Z,11.40
2019-05-15T22:44:28.006Z,11.30
2019-05-15T22:46:58.209Z,11.30
2019-05-15T22:49:28.900Z,11.20
2019-05-15T22:51:59.310Z,11.10
2019-05-15T22:54:29.677Z,11.10
2019-05-15T22:57:00.338Z,11.00
2019-05-15T22:59:30.703Z,11.00
2019-05-15T23:02:01.086Z,10.90
2019-05-15T23:04:31.452Z,10.90
2019-05-15T23:07:01.839Z,10.80
2019-05-15T23:09:32.202Z,10.80
2019-05-15T23:12:02.778Z,10.80
2019-05-15T23:14:33.141Z,10.70
2019-05-15T23:17:03.526Z,10.70
2019-05-15T23:19:33.896Z,10.70
2019-05-15T23:22:04.291Z,10.70
2019-05-15T23:24:34.662Z,10.60
2019-05-15T23:27:05.309Z,10.50
2019-05-15T23:29:35.669Z,10.50
2019-05-15T23:32:07.850Z,10.50
2019-05-15T23:34:38.655Z,10.50
2019-05-15T23:37:10.434Z,10.40
2019-05-15T23:39:40.803Z,10.30
2019-05-15T23:42:11.193Z,10.30
2019-05-15T23:44:41.560Z,10.30
2019-05-15T23:47:11.943Z,10.30
2019-05-15T23:49:43.377Z,10.20
2019-05-15T23:52:13.777Z,10.20
2019-05-15T23:54:44.142Z,10.20
2019-05-15T23:57:14.544Z,10.10
2019-05-15T23:59:44.922Z,10.10
